Time;durP1;ratioP1;P1;durP2;ratioP2;P2;SDS_P1;SDS_P2;PMS_P1;PMS_P2;Temp;Humidity;BMP_temperature;BMP_pressure;BME280_temperature;BME280_humidity;BME280_pressure;Samples;Min_cycle;Max_cycle;Signal;HPM_P1;HPM_P2
2022/08/31 00:04:01;;;;;;;1.30;1.20;;;;;;;;;;5061983;28;20201;-68
2022/08/31 00:06:36;;;;;;;3.77;1.10;;;;;;;;;;5079302;28;20685;-68
2022/08/31 00:09:08;;;;;;;2.00;1.27;;;;;;;;;;5068722;28;20209;-68
2022/08/31 00:11:40;;;;;;;1.93;1.40;;;;;;;;;;5068286;28;20417;-68
2022/08/31 00:14:12;;;;;;;2.20;1.30;;;;;;;;;;5066763;28;20534;-68
2022/08/31 00:16:45;;;;;;;2.30;1.57;;;;;;;;;;5069166;28;20679;-68
2022/08/31 00:19:19;;;;;;;4.17;1.20;;;;;;;;;;5085088;28;20217;-68
2022/08/31 00:21:49;;;;;;;1.17;1.03;;;;;;;;;;5070651;28;20228;-68
2022/08/31 00:24:18;;;;;;;1.97;1.30;;;;;;;;;;5066496;28;20218;-68
2022/08/31 00:26:52;;;;;;;2.63;1.27;;;;;;;;;;5056503;28;20254;-68
2022/08/31 00:29:23;;;;;;;4.57;1.10;;;;;;;;;;5058756;28;20193;-68
2022/08/31 00:31:53;;;;;;;1.40;1.30;;;;;;;;;;5063674;28;20205;-68
2022/08/31 00:34:26;;;;;;;2.70;1.30;;;;;;;;;;5049601;28;20510;-68
2022/08/31 00:36:59;;;;;;;1.60;1.50;;;;;;;;;;5070206;28;20591;-68
2022/08/31 00:39:27;;;;;;;1.47;1.30;;;;;;;;;;5054916;28;20202;-68
2022/08/31 00:41:56;;;;;;;2.80;1.53;;;;;;;;;;5065986;28;20218;-68
2022/08/31 00:44:40;;;;;;;1.40;1.23;;;;;;;;;;5052261;28;20374;-68
2022/08/31 00:47:15;;;;;;;0.93;0.93;;;;;;;;;;5066418;28;20201;-68
2022/08/31 00:49:54;;;;;;;1.40;1.07;;;;;;;;;;5067336;28;20201;-68
2022/08/31 00:52:29;;;;;;;4.13;1.37;;;;;;;;;;5072373;28;20189;-68
2022/08/31 00:55:09;;;;;;;2.03;1.43;;;;;;;;;;5050655;28;20217;-68
2022/08/31 00:57:46;;;;;;;2.00;1.20;;;;;;;;;;5049434;28;20335;-67
2022/08/31 01:00:19;;;;;;;2.20;1.23;;;;;;;;;;5069345;28;20258;-67
2022/08/31 01:02:53;;;;;;;1.40;1.00;;;;;;;;;;5085011;28;20634;-67
2022/08/31 01:05:24;;;;;;;1.40;1.30;;;;;;;;;;5063414;28;20209;-68
2022/08/31 01:08:02;;;;;;;1.73;1.10;;;;;;;;;;5076980;28;20670;-68
2022/08/31 01:10:42;;;;;;;1.37;1.17;;;;;;;;;;5066136;28;20395;-68
2022/08/31 01:13:13;;;;;;;1.07;0.97;;;;;;;;;;5076169;28;20269;-68
2022/08/31 01:15:48;;;;;;;1.10;1.00;;;;;;;;;;5067487;28;20189;-68
2022/08/31 01:18:23;;;;;;;1.13;1.03;;;;;;;;;;5077376;28;20196;-67
2022/08/31 01:21:12;;;;;;;1.97;1.10;;;;;;;;;;5084378;28;20186;-67
2022/08/31 01:23:44;;;;;;;1.67;1.47;;;;;;;;;;5072632;28;20623;-68
2022/08/31 01:26:18;;;;;;;1.20;1.00;;;;;;;;;;5051517;28;20214;-67
2022/08/31 01:28:49;;;;;;;1.40;1.10;;;;;;;;;;5084330;28;20213;-68
2022/08/31 01:31:40;;;;;;;1.10;0.97;;;;;;;;;;5068048;28;20206;-67
2022/08/31 01:34:11;;;;;;;2.37;1.30;;;;;;;;;;5052788;28;20233;-67
2022/08/31 01:36:42;;;;;;;1.23;1.13;;;;;;;;;;5061546;28;20205;-67
2022/08/31 01:39:14;;;;;;;1.40;1.20;;;;;;;;;;5080938;28;20205;-67
2022/08/31 01:41:52;;;;;;;1.40;1.03;;;;;;;;;;5083817;28;20228;-67
2022/08/31 01:44:24;;;;;;;2.00;1.10;;;;;;;;;;5068884;28;20193;-67
2022/08/31 01:46:54;;;;;;;1.20;1.03;;;;;;;;;;5081021;28;20194;-67
2022/08/31 01:49:25;;;;;;;1.73;1.27;;;;;;;;;;5065304;28;20190;-68
2022/08/31 01:51:55;;;;;;;3.67;1.13;;;;;;;;;;5068935;28;20634;-68
2022/08/31 01:54:30;;;;;;;1.20;1.10;;;;;;;;;;5078408;28;20201;-68
2022/08/31 01:57:00;;;;;;;1.30;0.90;;;;;;;;;;5066527;28;20208;-68
2022/08/31 01:59:33;;;;;;;1.00;0.90;;;;;;;;;;5069635;28;20201;-68
2022/08/31 02:02:01;;;;;;;1.10;1.00;;;;;;;;;;5068869;28;20653;-67
2022/08/31 02:04:30;;;;;;;1.00;0.90;;;;;;;;;;5062403;28;20204;-68
2022/08/31 02:07:03;;;;;;;1.60;1.23;;;;;;;;;;5065461;28;20228;-68
2022/08/31 02:09:33;;;;;;;1.13;1.10;;;;;;;;;;5057698;28;20505;-67
2022/08/31 02:12:04;;;;;;;1.20;1.00;;;;;;;;;;5065508;28;20217;-67
2022/08/31 02:14:38;;;;;;;1.83;1.30;;;;;;;;;;5068491;28;20209;-68
2022/08/31 02:17:09;;;;;;;1.37;1.00;;;;;;;;;;5066547;28;20208;-68
2022/08/31 02:19:41;;;;;;;1.17;1.07;;;;;;;;;;5089331;28;20204;-68
2022/08/31 02:22:19;;;;;;;1.27;1.17;;;;;;;;;;5063193;28;20229;-68
2022/08/31 02:24:48;;;;;;;2.37;1.23;;;;;;;;;;5068984;28;20269;-67
2022/08/31 02:27:18;;;;;;;1.57;1.40;;;;;;;;;;5066768;28;20206;-68
2022/08/31 02:29:53;;;;;;;2.43;1.23;;;;;;;;;;5070218;28;20225;-67
2022/08/31 02:32:25;;;;;;;1.07;1.00;;;;;;;;;;5073597;28;20194;-68
2022/08/31 02:34:54;;;;;;;1.53;1.17;;;;;;;;;;5067014;28;20696;-68
2022/08/31 02:37:24;;;;;;;1.10;1.00;;;;;;;;;;5069287;28;20182;-67
2022/08/31 02:40:09;;;;;;;1.00;0.93;;;;;;;;;;5052368;28;20237;-68
2022/08/31 02:42:47;;;;;;;2.00;1.10;;;;;;;;;;5048853;28;20198;-68
2022/08/31 02:45:24;;;;;;;1.07;1.00;;;;;;;;;;5062787;28;20252;-67
2022/08/31 02:47:56;;;;;;;1.37;1.13;;;;;;;;;;5053277;28;20202;-68
2022/08/31 02:50:29;;;;;;;2.93;1.20;;;;;;;;;;5049493;28;20195;-68
2022/08/31 02:52:57;;;;;;;1.30;0.90;;;;;;;;;;5047228;28;20206;-68
2022/08/31 02:55:28;;;;;;;1.87;0.87;;;;;;;;;;5064985;28;20217;-68
2022/08/31 02:57:58;;;;;;;1.47;1.07;;;;;;;;;;5039653;28;20206;-67
2022/08/31 03:00:28;;;;;;;1.03;0.93;;;;;;;;;;5057140;28;20216;-68
2022/08/31 03:03:02;;;;;;;2.00;0.90;;;;;;;;;;5033654;28;20636;-67
2022/08/31 03:05:36;;;;;;;1.00;1.00;;;;;;;;;;5047714;28;20737;-68
2022/08/31 03:08:09;;;;;;;1.60;1.03;;;;;;;;;;5048670;28;20473;-67
2022/08/31 03:10:39;;;;;;;1.50;1.10;;;;;;;;;;5043520;28;20225;-67
2022/08/31 03:13:23;;;;;;;1.10;1.00;;;;;;;;;;5052422;28;20295;-67
2022/08/31 03:15:53;;;;;;;2.10;1.03;;;;;;;;;;5087765;28;20210;-67
2022/08/31 03:18:24;;;;;;;1.10;1.00;;;;;;;;;;5079533;28;20244;-67
2022/08/31 03:20:53;;;;;;;1.03;0.77;;;;;;;;;;5041113;28;20218;-67
2022/08/31 03:23:25;;;;;;;1.00;0.90;;;;;;;;;;5075481;28;20206;-68
2022/08/31 03:25:56;;;;;;;1.20;1.10;;;;;;;;;;5062506;28;20246;-67
2022/08/31 03:28:25;;;;;;;1.43;0.90;;;;;;;;;;5047196;28;20632;-67
2022/08/31 03:30:57;;;;;;;1.00;0.90;;;;;;;;;;5048205;28;20202;-68
2022/08/31 03:33:28;;;;;;;1.23;0.90;;;;;;;;;;5044155;28;20214;-68
2022/08/31 03:36:03;;;;;;;1.97;1.17;;;;;;;;;;5047169;28;20198;-68
2022/08/31 03:38:34;;;;;;;1.10;1.00;;;;;;;;;;5046544;28;20201;-67
2022/08/31 03:41:04;;;;;;;1.47;0.90;;;;;;;;;;5075678;28;20245;-68
2022/08/31 03:43:34;;;;;;;0.97;0.90;;;;;;;;;;5034634;28;20194;-68
2022/08/31 03:46:18;;;;;;;1.03;0.90;;;;;;;;;;5071709;28;20234;-67
2022/08/31 03:49:00;;;;;;;0.70;0.70;;;;;;;;;;5045078;28;20251;-67
2022/08/31 03:51:30;;;;;;;1.13;1.03;;;;;;;;;;5046535;28;20194;-67
2022/08/31 03:54:10;;;;;;;1.30;0.93;;;;;;;;;;5047737;28;20647;-68
2022/08/31 03:56:42;;;;;;;0.80;0.80;;;;;;;;;;5026762;28;20202;-67
2022/08/31 03:59:11;;;;;;;1.33;1.00;;;;;;;;;;5041650;28;20209;-68
2022/08/31 04:01:45;;;;;;;1.20;1.07;;;;;;;;;;5057956;28;20210;-68
2022/08/31 04:04:14;;;;;;;1.10;0.87;;;;;;;;;;5079483;28;20210;-67
2022/08/31 04:06:47;;;;;;;1.57;0.93;;;;;;;;;;5035639;28;20225;-68
2022/08/31 04:09:17;;;;;;;1.03;0.93;;;;;;;;;;5063100;28;20224;-68
2022/08/31 04:11:49;;;;;;;0.77;0.77;;;;;;;;;;5047408;28;20198;-68
2022/08/31 04:14:21;;;;;;;3.90;1.10;;;;;;;;;;5051834;28;20676;-68
2022/08/31 04:16:52;;;;;;;4.23;1.00;;;;;;;;;;5047205;28;20208;-68
2022/08/31 04:19:25;;;;;;;2.10;0.80;;;;;;;;;;5050185;28;20209;-68
2022/08/31 04:21:58;;;;;;;1.37;1.20;;;;;;;;;;5039948;28;20249;-68
2022/08/31 04:24:31;;;;;;;0.90;0.87;;;;;;;;;;5048134;28;20199;-68
2022/08/31 04:27:04;;;;;;;0.93;0.80;;;;;;;;;;5046609;28;20222;-68
2022/08/31 04:29:36;;;;;;;1.27;0.90;;;;;;;;;;5058787;28;20218;-68
2022/08/31 04:32:07;;;;;;;2.80;1.10;;;;;;;;;;5048087;28;20209;-68
2022/08/31 04:34:36;;;;;;;1.17;0.90;;;;;;;;;;5040431;28;20816;-67
2022/08/31 04:37:13;;;;;;;1.23;0.93;;;;;;;;;;5064170;28;20206;-67
2022/08/31 04:39:50;;;;;;;1.80;1.10;;;;;;;;;;5074389;28;20224;-68
2022/08/31 04:42:20;;;;;;;1.10;1.00;;;;;;;;;;5057036;28;20206;-68
2022/08/31 04:44:48;;;;;;;1.23;0.97;;;;;;;;;;5071952;28;20209;-68
2022/08/31 04:47:22;;;;;;;1.93;1.13;;;;;;;;;;5055056;28;20249;-68
2022/08/31 04:49:52;;;;;;;1.20;1.10;;;;;;;;;;5072198;28;20206;-68
2022/08/31 04:52:25;;;;;;;1.00;1.00;;;;;;;;;;5057944;28;20216;-68
2022/08/31 04:54:55;;;;;;;1.53;1.00;;;;;;;;;;5043732;28;20193;-68
2022/08/31 04:57:27;;;;;;;1.37;1.10;;;;;;;;;;5070829;28;20292;-68
2022/08/31 05:00:01;;;;;;;1.80;1.00;;;;;;;;;;5071036;28;20194;-68
2022/08/31 05:02:35;;;;;;;1.40;0.87;;;;;;;;;;5075263;28;20197;-67
2022/08/31 05:05:07;;;;;;;1.17;0.87;;;;;;;;;;5067818;28;20205;-67
2022/08/31 05:07:37;;;;;;;0.87;0.83;;;;;;;;;;5073596;28;20185;-68
2022/08/31 05:10:08;;;;;;;5.10;1.27;;;;;;;;;;5062779;28;20241;-67
2022/08/31 05:13:02;;;;;;;1.00;0.90;;;;;;;;;;5055006;28;20222;-67
2022/08/31 05:15:36;;;;;;;1.30;1.07;;;;;;;;;;5069424;28;20186;-67
2022/08/31 05:18:07;;;;;;;1.10;0.90;;;;;;;;;;5073131;28;20181;-67
2022/08/31 05:20:37;;;;;;;1.17;0.90;;;;;;;;;;5074247;28;20197;-67
2022/08/31 05:23:09;;;;;;;1.70;1.07;;;;;;;;;;5074263;28;20667;-68
2022/08/31 05:25:39;;;;;;;1.00;0.87;;;;;;;;;;5076483;28;20220;-68
2022/08/31 05:28:08;;;;;;;3.00;0.90;;;;;;;;;;5073809;28;20213;-68
2022/08/31 05:30:43;;;;;;;1.27;0.80;;;;;;;;;;5076285;28;20208;-68
2022/08/31 05:33:13;;;;;;;1.33;0.80;;;;;;;;;;5066469;28;20224;-68
2022/08/31 05:35:43;;;;;;;5.90;0.90;;;;;;;;;;5074215;28;20639;-68
2022/08/31 05:38:21;;;;;;;1.00;0.90;;;;;;;;;;5072141;28;20274;-68
2022/08/31 05:40:53;;;;;;;0.90;0.80;;;;;;;;;;5051201;28;20237;-68
2022/08/31 05:43:23;;;;;;;2.43;1.07;;;;;;;;;;5083900;28;20202;-68
2022/08/31 05:45:56;;;;;;;1.47;1.00;;;;;;;;;;5050506;28;20706;-68
2022/08/31 05:48:32;;;;;;;1.73;1.00;;;;;;;;;;5052204;28;20202;-68
2022/08/31 05:51:10;;;;;;;1.03;0.93;;;;;;;;;;5045957;28;20205;-68
2022/08/31 05:53:41;;;;;;;1.00;0.90;;;;;;;;;;5050618;28;20198;-67
2022/08/31 05:56:18;;;;;;;1.93;0.70;;;;;;;;;;5088298;28;20198;-68
2022/08/31 05:58:48;;;;;;;0.70;0.70;;;;;;;;;;5050717;28;20300;-67
2022/08/31 06:01:24;;;;;;;2.00;0.87;;;;;;;;;;5049381;28;20268;-68
2022/08/31 06:03:56;;;;;;;2.43;0.90;;;;;;;;;;5045725;28;20218;-67
2022/08/31 06:06:28;;;;;;;2.03;1.00;;;;;;;;;;5037882;28;20207;-68
2022/08/31 06:09:00;;;;;;;3.50;1.00;;;;;;;;;;5040711;28;20205;-70
2022/08/31 06:11:40;;;;;;;0.90;0.70;;;;;;;;;;5081983;28;20627;-69
2022/08/31 06:14:11;;;;;;;2.10;1.00;;;;;;;;;;5048860;28;20945;-70
2022/08/31 06:16:42;;;;;;;1.87;1.10;;;;;;;;;;5032767;28;20516;-69
2022/08/31 06:19:13;;;;;;;1.70;0.80;;;;;;;;;;5048082;28;20206;-68
2022/08/31 06:21:48;;;;;;;1.20;0.83;;;;;;;;;;5046390;28;20206;-70
2022/08/31 06:24:19;;;;;;;3.17;1.27;;;;;;;;;;5048952;28;20186;-68
2022/08/31 06:26:54;;;;;;;0.93;0.70;;;;;;;;;;5051875;28;20773;-72
2022/08/31 06:29:26;;;;;;;1.00;0.90;;;;;;;;;;5061777;28;20194;-69
2022/08/31 06:31:59;;;;;;;0.90;0.90;;;;;;;;;;5063781;28;20201;-71
2022/08/31 06:34:28;;;;;;;2.00;0.83;;;;;;;;;;5032068;28;20207;-70
2022/08/31 06:36:59;;;;;;;1.43;0.77;;;;;;;;;;5070052;28;20199;-69
2022/08/31 06:39:28;;;;;;;2.87;0.77;;;;;;;;;;5076524;28;20198;-69
2022/08/31 06:42:02;;;;;;;1.13;0.80;;;;;;;;;;5043415;28;20235;-70
2022/08/31 06:44:43;;;;;;;1.60;1.10;;;;;;;;;;5046307;28;20241;-69
2022/08/31 06:47:14;;;;;;;2.10;1.00;;;;;;;;;;5042588;28;20230;-69
2022/08/31 06:49:52;;;;;;;1.87;0.83;;;;;;;;;;5048365;28;20244;-68
2022/08/31 06:52:26;;;;;;;1.77;0.90;;;;;;;;;;5046821;28;20186;-67
2022/08/31 06:55:01;;;;;;;3.43;1.00;;;;;;;;;;5047378;28;20645;-67
2022/08/31 06:57:33;;;;;;;2.80;0.90;;;;;;;;;;5059936;28;20217;-67
2022/08/31 07:00:04;;;;;;;2.40;0.87;;;;;;;;;;5047388;28;20259;-68
2022/08/31 07:02:36;;;;;;;1.47;0.90;;;;;;;;;;5049813;28;20194;-71
2022/08/31 07:05:06;;;;;;;3.33;0.80;;;;;;;;;;5030503;28;20194;-69
2022/08/31 07:07:40;;;;;;;4.10;0.90;;;;;;;;;;5050741;28;20687;-66
2022/08/31 07:10:13;;;;;;;4.03;1.20;;;;;;;;;;5047465;28;20206;-66
2022/08/31 07:12:46;;;;;;;1.13;0.90;;;;;;;;;;5047598;28;20197;-66
2022/08/31 07:15:18;;;;;;;2.13;0.90;;;;;;;;;;5037477;28;20562;-66
2022/08/31 07:17:48;;;;;;;3.00;0.93;;;;;;;;;;5047079;28;20203;-66
2022/08/31 07:20:22;;;;;;;1.30;0.83;;;;;;;;;;5043168;28;20212;-66
2022/08/31 07:22:52;;;;;;;3.07;0.93;;;;;;;;;;5040706;28;20245;-72
2022/08/31 07:25:25;;;;;;;2.00;1.00;;;;;;;;;;5026872;28;20202;-70
2022/08/31 07:27:59;;;;;;;1.63;0.80;;;;;;;;;;5046543;28;20706;-70
2022/08/31 07:30:33;;;;;;;0.87;0.73;;;;;;;;;;5047485;28;20276;-70
2022/08/31 07:33:06;;;;;;;1.93;0.90;;;;;;;;;;5040310;28;20726;-70
2022/08/31 07:35:37;;;;;;;2.00;0.83;;;;;;;;;;5062646;28;20244;-65
2022/08/31 07:43:51;;;;;;;2.53;0.90;;;;;;;;;;5063664;28;20197;-74
2022/08/31 07:46:28;;;;;;;3.80;1.23;;;;;;;;;;5052445;28;20229;-70
2022/08/31 07:49:00;;;;;;;2.57;0.80;;;;;;;;;;5064928;28;20205;-69
2022/08/31 07:51:29;;;;;;;0.80;0.70;;;;;;;;;;5080257;28;20193;-70
2022/08/31 07:53:57;;;;;;;1.73;1.00;;;;;;;;;;5067247;28;20198;-69
2022/08/31 07:56:25;;;;;;;1.63;0.70;;;;;;;;;;5033509;28;20198;-70
2022/08/31 07:58:56;;;;;;;2.00;0.80;;;;;;;;;;5062162;28;20202;-70
2022/08/31 08:01:25;;;;;;;4.20;0.90;;;;;;;;;;5065680;28;20212;-71
2022/08/31 08:03:56;;;;;;;2.33;0.73;;;;;;;;;;5069119;28;20198;-73
2022/08/31 08:06:29;;;;;;;2.77;0.90;;;;;;;;;;5082781;28;20279;-69
2022/08/31 08:09:09;;;;;;;2.50;1.10;;;;;;;;;;5069420;28;20677;-70
2022/08/31 08:11:56;;;;;;;3.23;1.00;;;;;;;;;;5067675;28;20240;-70
2022/08/31 08:14:28;;;;;;;4.17;1.00;;;;;;;;;;5066620;28;20189;-70
2022/08/31 08:16:57;;;;;;;4.20;1.13;;;;;;;;;;5078664;28;20433;-70
2022/08/31 08:19:32;;;;;;;2.50;0.83;;;;;;;;;;5056399;28;20333;-69
2022/08/31 08:22:11;;;;;;;3.13;0.97;;;;;;;;;;5066911;28;20229;-70
2022/08/31 08:25:05;;;;;;;2.27;1.17;;;;;;;;;;5057509;28;20204;-69
2022/08/31 08:27:39;;;;;;;3.40;1.20;;;;;;;;;;5066822;28;20214;-67
2022/08/31 08:30:11;;;;;;;1.43;0.87;;;;;;;;;;5082437;28;20197;-70
2022/08/31 08:32:43;;;;;;;1.20;1.10;;;;;;;;;;5066365;28;20198;-68
2022/08/31 08:35:15;;;;;;;1.90;1.17;;;;;;;;;;5045607;28;20216;-67
2022/08/31 08:37:49;;;;;;;3.43;1.27;;;;;;;;;;5071699;28;20654;-66
2022/08/31 08:40:40;;;;;;;1.63;1.10;;;;;;;;;;5037679;28;20565;-67
2022/08/31 08:43:17;;;;;;;2.27;0.87;;;;;;;;;;5048457;28;20675;-69
2022/08/31 08:46:01;;;;;;;1.30;0.87;;;;;;;;;;5056888;28;20205;-68
2022/08/31 08:49:07;;;;;;;1.63;0.97;;;;;;;;;;5081733;28;20639;-68
2022/08/31 08:51:38;;;;;;;2.20;1.00;;;;;;;;;;5050490;28;20182;-68
2022/08/31 08:54:22;;;;;;;2.90;1.17;;;;;;;;;;5069567;28;20670;-69
2022/08/31 08:56:56;;;;;;;2.50;1.20;;;;;;;;;;5058697;28;20252;-69
2022/08/31 08:59:30;;;;;;;1.20;1.00;;;;;;;;;;5075370;28;20229;-69
2022/08/31 09:02:03;;;;;;;1.77;1.10;;;;;;;;;;5049936;28;20611;-70
2022/08/31 09:04:58;;;;;;;4.27;1.60;;;;;;;;;;5063058;28;20294;-68
2022/08/31 09:07:43;;;;;;;3.83;1.40;;;;;;;;;;5086425;28;20312;-68
2022/08/31 09:10:29;;;;;;;2.40;1.23;;;;;;;;;;5046008;28;20441;-68
2022/08/31 09:13:02;;;;;;;1.60;1.50;;;;;;;;;;5047629;28;20221;-71
2022/08/31 09:15:50;;;;;;;3.10;1.50;;;;;;;;;;5053285;28;20620;-70
2022/08/31 09:18:25;;;;;;;2.00;1.20;;;;;;;;;;5059178;28;20206;-71
2022/08/31 09:21:05;;;;;;;6.13;1.70;;;;;;;;;;5037381;28;20600;-70
2022/08/31 09:23:43;;;;;;;2.53;1.70;;;;;;;;;;5053993;28;20262;-71
2022/08/31 09:26:17;;;;;;;2.40;1.70;;;;;;;;;;5035796;28;20721;-71
2022/08/31 09:28:51;;;;;;;2.63;1.17;;;;;;;;;;5046605;28;20647;-70
2022/08/31 09:31:38;;;;;;;3.37;1.27;;;;;;;;;;5058427;28;20205;-71
2022/08/31 09:34:28;;;;;;;1.97;1.60;;;;;;;;;;5077023;28;20225;-70
2022/08/31 09:37:13;;;;;;;1.83;1.50;;;;;;;;;;5051474;28;20271;-71
2022/08/31 09:39:48;;;;;;;5.27;1.60;;;;;;;;;;5057635;28;20202;-70
2022/08/31 09:42:29;;;;;;;2.17;1.70;;;;;;;;;;5038634;28;20848;-70
2022/08/31 09:45:34;;;;;;;2.00;1.30;;;;;;;;;;5040380;28;20715;-70
2022/08/31 09:48:10;;;;;;;2.60;1.27;;;;;;;;;;5037442;28;20217;-70
2022/08/31 09:50:47;;;;;;;1.57;1.27;;;;;;;;;;5058294;28;20213;-70
2022/08/31 09:56:57;;;;;;;3.00;1.30;;;;;;;;;;5047856;28;20218;-65
2022/08/31 09:59:40;;;;;;;1.20;1.10;;;;;;;;;;5060337;28;20194;-65
2022/08/31 10:02:30;;;;;;;2.13;1.43;;;;;;;;;;5046247;28;20193;-65
2022/08/31 10:05:02;;;;;;;1.80;1.20;;;;;;;;;;5046904;28;20201;-66
2022/08/31 10:07:36;;;;;;;1.27;1.07;;;;;;;;;;5034394;28;20749;-65
2022/08/31 10:10:14;;;;;;;4.57;1.20;;;;;;;;;;5059154;28;20635;-64
2022/08/31 10:13:16;;;;;;;9.63;1.10;;;;;;;;;;5058604;28;20275;-65
2022/08/31 10:15:53;;;;;;;1.23;0.80;;;;;;;;;;5042412;28;20257;-66
2022/08/31 10:18:42;;;;;;;1.40;1.00;;;;;;;;;;5048102;28;20186;-65
2022/08/31 10:21:15;;;;;;;1.50;0.80;;;;;;;;;;5032738;28;20226;-65
2022/08/31 10:23:55;;;;;;;1.07;1.00;;;;;;;;;;5044643;28;20432;-65
2022/08/31 10:26:35;;;;;;;1.37;1.00;;;;;;;;;;5050435;28;20206;-65
2022/08/31 10:29:27;;;;;;;1.50;0.97;;;;;;;;;;5035010;28;20443;-69
2022/08/31 10:32:01;;;;;;;0.90;0.90;;;;;;;;;;5049261;28;20608;-69
2022/08/31 10:37:48;;;;;;;1.17;0.80;;;;;;;;;;5032240;28;20290;-66
2022/08/31 10:40:21;;;;;;;1.37;0.83;;;;;;;;;;5050246;28;20199;-66
2022/08/31 10:43:03;;;;;;;0.87;0.87;;;;;;;;;;5056964;28;20189;-66
2022/08/31 10:45:35;;;;;;;1.53;0.80;;;;;;;;;;5063033;28;20214;-67
2022/08/31 10:48:11;;;;;;;1.40;0.87;;;;;;;;;;5066328;28;20206;-68
2022/08/31 10:51:21;;;;;;;1.17;0.90;;;;;;;;;;5072090;28;20197;-64
2022/08/31 10:54:07;;;;;;;1.37;0.73;;;;;;;;;;5054540;28;20206;-68
2022/08/31 10:56:40;;;;;;;1.30;0.90;;;;;;;;;;5079062;28;20495;-67
2022/08/31 10:59:33;;;;;;;0.70;0.70;;;;;;;;;;5042125;28;20865;-66
2022/08/31 11:02:21;;;;;;;4.57;1.23;;;;;;;;;;5070694;28;20212;-66
2022/08/31 11:04:52;;;;;;;1.90;0.70;;;;;;;;;;5072666;28;20212;-66
2022/08/31 11:07:36;;;;;;;2.33;0.97;;;;;;;;;;5070613;28;20210;-67
2022/08/31 11:10:28;;;;;;;1.23;0.97;;;;;;;;;;5069685;28;20220;-66
2022/08/31 11:13:13;;;;;;;1.07;0.93;;;;;;;;;;5068855;28;20270;-65
2022/08/31 11:16:02;;;;;;;0.90;0.90;;;;;;;;;;5067938;28;20197;-66
2022/08/31 11:18:58;;;;;;;1.07;0.90;;;;;;;;;;5071177;28;20193;-66
2022/08/31 11:21:38;;;;;;;4.30;1.30;;;;;;;;;;5067125;28;20218;-66
2022/08/31 11:24:27;;;;;;;2.13;1.47;;;;;;;;;;5061625;28;20197;-66
2022/08/31 11:27:22;;;;;;;4.73;1.13;;;;;;;;;;5062050;28;20659;-66
2022/08/31 11:29:57;;;;;;;1.73;1.40;;;;;;;;;;5061208;28;20539;-66
2022/08/31 11:32:49;;;;;;;1.90;1.50;;;;;;;;;;5065422;28;20189;-67
2022/08/31 11:35:38;;;;;;;4.80;2.10;;;;;;;;;;5073421;28;20217;-66
2022/08/31 11:38:34;;;;;;;2.13;1.83;;;;;;;;;;5078456;28;20263;-66
2022/08/31 11:41:04;;;;;;;1.80;1.50;;;;;;;;;;5040507;28;20248;-66
2022/08/31 11:43:36;;;;;;;3.10;2.00;;;;;;;;;;5066295;28;20197;-70
2022/08/31 11:46:27;;;;;;;2.20;2.00;;;;;;;;;;5049872;28;20218;-70
2022/08/31 11:48:58;;;;;;;6.70;2.20;;;;;;;;;;5071237;28;20253;-70
2022/08/31 11:51:42;;;;;;;3.70;2.17;;;;;;;;;;5050939;28;20202;-70
2022/08/31 11:54:20;;;;;;;3.50;1.90;;;;;;;;;;5052481;28;20243;-71
2022/08/31 11:56:55;;;;;;;4.13;2.47;;;;;;;;;;5056842;28;20206;-69
2022/08/31 11:59:35;;;;;;;4.63;2.13;;;;;;;;;;5062471;28;20182;-69
2022/08/31 12:02:21;;;;;;;2.07;1.90;;;;;;;;;;5056784;28;20193;-72
2022/08/31 12:05:01;;;;;;;3.00;2.10;;;;;;;;;;5053011;28;20200;-73
2022/08/31 12:07:31;;;;;;;5.80;2.27;;;;;;;;;;5047139;28;20206;-71
2022/08/31 12:10:48;;;;;;;5.27;2.27;;;;;;;;;;5052025;28;20235;-73
2022/08/31 12:13:24;;;;;;;2.13;2.00;;;;;;;;;;5020011;28;20700;-73
2022/08/31 12:16:11;;;;;;;3.77;2.00;;;;;;;;;;5009335;28;20237;-73
2022/08/31 12:19:00;;;;;;;3.67;2.47;;;;;;;;;;5015643;28;20234;-72
2022/08/31 12:24:30;;;;;;;2.43;2.00;;;;;;;;;;5013813;28;20204;-67
2022/08/31 12:27:17;;;;;;;3.50;2.17;;;;;;;;;;4981270;28;20227;-71
2022/08/31 12:29:49;;;;;;;2.30;2.10;;;;;;;;;;5065945;28;20189;-70
2022/08/31 12:32:30;;;;;;;7.53;2.07;;;;;;;;;;5055353;28;20190;-71
2022/08/31 12:35:13;;;;;;;2.97;2.20;;;;;;;;;;5052705;28;20194;-71
2022/08/31 12:37:45;;;;;;;2.30;2.00;;;;;;;;;;5056694;28;20194;-71
2022/08/31 12:40:19;;;;;;;2.90;2.00;;;;;;;;;;5055408;28;20269;-67
2022/08/31 12:43:06;;;;;;;2.20;2.00;;;;;;;;;;5085275;28;20201;-68
2022/08/31 12:45:55;;;;;;;2.87;2.17;;;;;;;;;;5073848;28;20537;-69
2022/08/31 12:48:44;;;;;;;2.47;2.27;;;;;;;;;;5048121;28;20613;-67
2022/08/31 12:51:33;;;;;;;4.40;2.33;;;;;;;;;;5067929;28;21015;-68
2022/08/31 12:54:08;;;;;;;5.33;2.53;;;;;;;;;;5034170;28;20208;-70
2022/08/31 12:56:56;;;;;;;2.50;2.07;;;;;;;;;;5068539;28;20210;-70
2022/08/31 12:59:44;;;;;;;6.30;2.80;;;;;;;;;;5065856;28;20546;-70
2022/08/31 13:02:31;;;;;;;3.17;2.27;;;;;;;;;;5075292;28;20189;-72
2022/08/31 13:05:24;;;;;;;4.97;2.40;;;;;;;;;;5069469;28;20611;-65
2022/08/31 13:07:56;;;;;;;2.70;2.10;;;;;;;;;;5093744;28;20213;-68
2022/08/31 13:10:26;;;;;;;3.00;2.40;;;;;;;;;;5085201;28;20204;-68
2022/08/31 13:13:02;;;;;;;2.93;2.30;;;;;;;;;;5070925;28;20248;-69
2022/08/31 13:15:39;;;;;;;2.90;2.17;;;;;;;;;;5064066;28;20724;-67
2022/08/31 13:18:16;;;;;;;2.80;2.27;;;;;;;;;;5076153;28;20188;-70
2022/08/31 13:20:49;;;;;;;2.50;2.30;;;;;;;;;;5069672;28;20223;-69
2022/08/31 13:23:27;;;;;;;4.87;2.33;;;;;;;;;;5068322;28;22068;-67
2022/08/31 13:26:13;;;;;;;3.23;2.13;;;;;;;;;;5084521;28;20198;-67
2022/08/31 13:28:59;;;;;;;2.93;2.40;;;;;;;;;;5069626;28;20569;-68
2022/08/31 13:31:33;;;;;;;1.97;1.87;;;;;;;;;;5080841;28;20619;-67
2022/08/31 13:34:06;;;;;;;3.63;2.23;;;;;;;;;;5070231;28;20626;-68
2022/08/31 13:36:42;;;;;;;5.53;2.60;;;;;;;;;;5069194;28;20202;-68
2022/08/31 13:39:21;;;;;;;3.07;2.30;;;;;;;;;;5059151;28;20661;-66
2022/08/31 13:41:57;;;;;;;3.50;2.40;;;;;;;;;;5072563;28;20241;-68
2022/08/31 13:44:44;;;;;;;5.73;2.30;;;;;;;;;;5069318;28;20201;-69
2022/08/31 13:47:26;;;;;;;4.13;2.50;;;;;;;;;;5059127;28;20319;-68
2022/08/31 13:50:18;;;;;;;3.30;2.30;;;;;;;;;;5069599;28;20185;-67
2022/08/31 13:52:56;;;;;;;3.43;2.70;;;;;;;;;;5092464;28;20200;-68
2022/08/31 13:55:51;;;;;;;5.57;2.57;;;;;;;;;;5076852;28;20267;-66
2022/08/31 13:58:26;;;;;;;4.37;2.37;;;;;;;;;;5057677;28;20202;-69
2022/08/31 14:01:17;;;;;;;3.23;2.70;;;;;;;;;;5067087;28;20273;-66
2022/08/31 14:03:56;;;;;;;2.53;2.27;;;;;;;;;;5058047;28;20210;-66
2022/08/31 14:06:37;;;;;;;2.43;2.23;;;;;;;;;;5074059;28;20200;-68
2022/08/31 14:09:14;;;;;;;2.53;2.30;;;;;;;;;;5061123;28;20240;-67
2022/08/31 14:11:52;;;;;;;4.50;2.37;;;;;;;;;;5067011;28;20217;-66
2022/08/31 14:14:38;;;;;;;6.90;2.43;;;;;;;;;;5080236;28;20189;-66
2022/08/31 14:17:14;;;;;;;3.87;2.50;;;;;;;;;;5065928;28;20194;-74
2022/08/31 14:19:45;;;;;;;3.17;2.87;;;;;;;;;;5067781;28;20213;-68
2022/08/31 14:22:25;;;;;;;4.57;2.40;;;;;;;;;;5059835;28;20243;-70
2022/08/31 14:24:59;;;;;;;4.00;2.80;;;;;;;;;;5066414;28;20247;-69
2022/08/31 14:27:41;;;;;;;4.93;2.50;;;;;;;;;;5053521;28;20541;-69
2022/08/31 14:30:25;;;;;;;2.53;2.33;;;;;;;;;;5067257;28;20201;-68
2022/08/31 14:32:59;;;;;;;2.50;2.30;;;;;;;;;;5072548;28;20529;-67
2022/08/31 14:35:31;;;;;;;2.50;2.30;;;;;;;;;;5064525;28;20210;-70
2022/08/31 14:38:01;;;;;;;7.57;2.77;;;;;;;;;;5052431;28;20208;-67
2022/08/31 14:40:38;;;;;;;2.80;2.60;;;;;;;;;;5068459;28;20224;-68
2022/08/31 14:43:15;;;;;;;3.73;2.43;;;;;;;;;;5080844;28;20193;-70
2022/08/31 14:45:46;;;;;;;2.67;2.47;;;;;;;;;;5063096;28;20197;-65
2022/08/31 14:48:15;;;;;;;4.30;2.80;;;;;;;;;;5055296;28;20830;-64
2022/08/31 14:50:47;;;;;;;2.73;2.50;;;;;;;;;;5051696;28;20214;-65
2022/08/31 14:53:20;;;;;;;3.60;2.83;;;;;;;;;;5050110;28;20195;-64
2022/08/31 14:55:51;;;;;;;3.90;2.90;;;;;;;;;;5078167;28;20201;-64
2022/08/31 14:58:23;;;;;;;2.40;2.20;;;;;;;;;;5065189;28;20196;-64
2022/08/31 15:00:53;;;;;;;3.07;2.57;;;;;;;;;;5056686;28;20210;-65
2022/08/31 15:03:32;;;;;;;4.40;2.47;;;;;;;;;;5064149;28;20202;-65
2022/08/31 15:06:03;;;;;;;2.93;2.40;;;;;;;;;;5081128;28;20194;-65
2022/08/31 15:08:37;;;;;;;4.47;2.70;;;;;;;;;;5081366;28;20532;-65
2022/08/31 15:11:10;;;;;;;2.30;2.10;;;;;;;;;;5055257;28;20691;-64
2022/08/31 15:13:42;;;;;;;5.40;2.57;;;;;;;;;;5054641;28;20202;-65
2022/08/31 15:16:13;;;;;;;2.80;2.50;;;;;;;;;;5035322;28;20198;-65
2022/08/31 15:18:45;;;;;;;4.73;2.60;;;;;;;;;;5050003;28;20193;-64
2022/08/31 15:21:16;;;;;;;3.30;2.33;;;;;;;;;;5060099;28;20765;-64
2022/08/31 15:23:52;;;;;;;4.47;2.50;;;;;;;;;;5074575;28;20221;-64
2022/08/31 15:26:24;;;;;;;2.90;2.60;;;;;;;;;;5056388;28;20593;-64
2022/08/31 15:28:55;;;;;;;2.90;2.30;;;;;;;;;;5036124;28;20230;-64
2022/08/31 15:31:24;;;;;;;5.47;2.40;;;;;;;;;;5055492;28;20854;-64
2022/08/31 15:33:59;;;;;;;3.10;2.67;;;;;;;;;;5071696;28;20197;-64
2022/08/31 15:36:38;;;;;;;2.60;2.40;;;;;;;;;;5056072;28;20217;-64
2022/08/31 15:39:09;;;;;;;3.70;2.30;;;;;;;;;;5061458;28;20201;-64
2022/08/31 15:41:41;;;;;;;3.80;2.30;;;;;;;;;;5057261;28;20235;-64
2022/08/31 15:44:22;;;;;;;4.83;2.43;;;;;;;;;;5060087;28;20252;-64
2022/08/31 15:49:47;;;;;;;2.93;2.50;;;;;;;;;;5054741;28;20226;-64
2022/08/31 15:52:19;;;;;;;3.17;2.30;;;;;;;;;;5057239;28;20193;-65
2022/08/31 15:54:56;;;;;;;2.37;2.17;;;;;;;;;;5065122;28;20202;-64
2022/08/31 15:57:29;;;;;;;2.93;2.67;;;;;;;;;;5073238;28;20187;-64